<?xml version="1.0" encoding="UTF-8" standalone="no" ?>
<gpx xmlns="http://www.topografix.com/GPX/1/1" xmlns:xsi="http://www.w3.org/2001/XMLSchema-instance" xsi:schemaLocation="http://www.topografix.com/GPX/1/1 http://www.topografix.com/GPX/1/1/gpx.xsd" version="1.1" creator="VisuGPX - https://www.visugpx.com">
  <metadata>
    <name>Saint Dié</name>
    <desc><![CDATA[Belle rando au dessus de Saint Dié.
Passage au camp gaulois de la Bure
Dist :13,65 km
Deniv : 680 m]]></desc>
  </metadata>
  <trk>
    <name><![CDATA[Saint Dié_1]]></name>
    <trkseg>
      <trkpt lat="48.29802" lon="6.96202">
        <ele>413</ele>
        <time>2014-11-02T09:36:53.036Z</time>
      </trkpt>
      <trkpt lat="48.29817" lon="6.96198">
        <ele>414</ele>
        <time>2014-11-02T09:37:07.033Z</time>
      </trkpt>
      <trkpt lat="48.29859" lon="6.96182">
        <ele>428</ele>
        <time>2014-11-02T09:38:07.038Z</time>
      </trkpt>
      <trkpt lat="48.29903" lon="6.962">
        <ele>435</ele>
        <time>2014-11-02T09:38:59.063Z</time>
      </trkpt>
      <trkpt lat="48.29933" lon="6.96237">
        <ele>451</ele>
        <time>2014-11-02T09:39:51.038Z</time>
      </trkpt>
      <trkpt lat="48.29943" lon="6.96304">
        <ele>458</ele>
        <time>2014-11-02T09:40:48.035Z</time>
      </trkpt>
      <trkpt lat="48.29953" lon="6.96369">
        <ele>465</ele>
        <time>2014-11-02T09:41:48.04Z</time>
      </trkpt>
      <trkpt lat="48.29956" lon="6.9643">
        <ele>471</ele>
        <time>2014-11-02T09:42:48.049Z</time>
      </trkpt>
      <trkpt lat="48.29961" lon="6.96509">
        <ele>478</ele>
        <time>2014-11-02T09:43:37.041Z</time>
      </trkpt>
      <trkpt lat="48.2998" lon="6.9657">
        <ele>483</ele>
        <time>2014-11-02T09:44:27.04Z</time>
      </trkpt>
      <trkpt lat="48.30022" lon="6.966">
        <ele>500</ele>
        <time>2014-11-02T09:45:20.049Z</time>
      </trkpt>
      <trkpt lat="48.30055" lon="6.96651">
        <ele>504</ele>
        <time>2014-11-02T09:46:20.058Z</time>
      </trkpt>
      <trkpt lat="48.30081" lon="6.96708">
        <ele>507</ele>
        <time>2014-11-02T09:46:53.066Z</time>
      </trkpt>
      <trkpt lat="48.30123" lon="6.96752">
        <ele>516</ele>
        <time>2014-11-02T09:47:32.029Z</time>
      </trkpt>
      <trkpt lat="48.30151" lon="6.96781">
        <ele>516</ele>
        <time>2014-11-02T09:48:33.02Z</time>
      </trkpt>
      <trkpt lat="48.30126" lon="6.96782">
        <ele>516</ele>
        <time>2014-11-02T09:49:34.013Z</time>
      </trkpt>
      <trkpt lat="48.30138" lon="6.96785">
        <ele>516</ele>
        <time>2014-11-02T09:50:34.999Z</time>
      </trkpt>
      <trkpt lat="48.30146" lon="6.96801">
        <ele>516</ele>
        <time>2014-11-02T09:50:43Z</time>
      </trkpt>
      <trkpt lat="48.30149" lon="6.96822">
        <ele>516</ele>
        <time>2014-11-02T09:50:53.005Z</time>
      </trkpt>
      <trkpt lat="48.3014" lon="6.96866">
        <ele>517</ele>
        <time>2014-11-02T09:51:20.016Z</time>
      </trkpt>
      <trkpt lat="48.30133" lon="6.96933">
        <ele>517</ele>
        <time>2014-11-02T09:51:54.034Z</time>
      </trkpt>
      <trkpt lat="48.30124" lon="6.97">
        <ele>520</ele>
        <time>2014-11-02T09:52:35.016Z</time>
      </trkpt>
      <trkpt lat="48.30127" lon="6.97051">
        <ele>523</ele>
        <time>2014-11-02T09:53:01.01Z</time>
      </trkpt>
      <trkpt lat="48.30128" lon="6.97072">
        <ele>523</ele>
        <time>2014-11-02T09:53:10.009Z</time>
      </trkpt>
      <trkpt lat="48.30148" lon="6.97127">
        <ele>530</ele>
        <time>2014-11-02T09:53:47.996Z</time>
      </trkpt>
      <trkpt lat="48.30173" lon="6.97184">
        <ele>542</ele>
        <time>2014-11-02T09:54:21.003Z</time>
      </trkpt>
      <trkpt lat="48.30207" lon="6.97231">
        <ele>544</ele>
        <time>2014-11-02T09:54:59.998Z</time>
      </trkpt>
      <trkpt lat="48.30236" lon="6.97284">
        <ele>554</ele>
        <time>2014-11-02T09:55:40.99Z</time>
      </trkpt>
      <trkpt lat="48.30269" lon="6.97331">
        <ele>558</ele>
        <time>2014-11-02T09:56:20.989Z</time>
      </trkpt>
      <trkpt lat="48.30307" lon="6.97381">
        <ele>564</ele>
        <time>2014-11-02T09:57:02.99Z</time>
      </trkpt>
      <trkpt lat="48.30324" lon="6.97445">
        <ele>571</ele>
        <time>2014-11-02T09:57:43.965Z</time>
      </trkpt>
      <trkpt lat="48.30323" lon="6.97513">
        <ele>577</ele>
        <time>2014-11-02T09:58:23.029Z</time>
      </trkpt>
      <trkpt lat="48.3034" lon="6.97586">
        <ele>583</ele>
        <time>2014-11-02T09:59:09.024Z</time>
      </trkpt>
      <trkpt lat="48.30378" lon="6.97679">
        <ele>589</ele>
        <time>2014-11-02T10:00:06.966Z</time>
      </trkpt>
      <trkpt lat="48.30361" lon="6.97742">
        <ele>594</ele>
        <time>2014-11-02T10:00:52.98Z</time>
      </trkpt>
      <trkpt lat="48.30348" lon="6.9781">
        <ele>598</ele>
        <time>2014-11-02T10:01:34.994Z</time>
      </trkpt>
      <trkpt lat="48.30335" lon="6.97876">
        <ele>602</ele>
        <time>2014-11-02T10:02:14.99Z</time>
      </trkpt>
      <trkpt lat="48.30309" lon="6.97931">
        <ele>618</ele>
        <time>2014-11-02T10:03:10.93Z</time>
      </trkpt>
      <trkpt lat="48.30278" lon="6.97985">
        <ele>621</ele>
        <time>2014-11-02T10:04:06.009Z</time>
      </trkpt>
      <trkpt lat="48.30301" lon="6.98043">
        <ele>635</ele>
        <time>2014-11-02T10:04:51.988Z</time>
      </trkpt>
      <trkpt lat="48.30296" lon="6.98058">
        <ele>636</ele>
        <time>2014-11-02T10:05:51.996Z</time>
      </trkpt>
      <trkpt lat="48.30295" lon="6.98062">
        <ele>637</ele>
        <time>2014-11-02T10:06:53.005Z</time>
      </trkpt>
      <trkpt lat="48.30299" lon="6.9806">
        <ele>637</ele>
        <time>2014-11-02T10:07:53.01Z</time>
      </trkpt>
      <trkpt lat="48.303" lon="6.9806">
        <ele>637</ele>
        <time>2014-11-02T10:08:54.004Z</time>
      </trkpt>
      <trkpt lat="48.303" lon="6.9806">
        <ele>637</ele>
        <time>2014-11-02T10:09:54.01Z</time>
      </trkpt>
      <trkpt lat="48.30304" lon="6.98067">
        <ele>638</ele>
        <time>2014-11-02T10:10:54.984Z</time>
      </trkpt>
      <trkpt lat="48.30314" lon="6.98137">
        <ele>651</ele>
        <time>2014-11-02T10:11:32.986Z</time>
      </trkpt>
      <trkpt lat="48.30318" lon="6.98204">
        <ele>660</ele>
        <time>2014-11-02T10:12:18.985Z</time>
      </trkpt>
      <trkpt lat="48.30316" lon="6.98272">
        <ele>667</ele>
        <time>2014-11-02T10:12:50.978Z</time>
      </trkpt>
      <trkpt lat="48.30325" lon="6.98339">
        <ele>670</ele>
        <time>2014-11-02T10:13:24.015Z</time>
      </trkpt>
      <trkpt lat="48.30327" lon="6.98408">
        <ele>675</ele>
        <time>2014-11-02T10:14:04.925Z</time>
      </trkpt>
      <trkpt lat="48.30323" lon="6.98476">
        <ele>684</ele>
        <time>2014-11-02T10:14:44.956Z</time>
      </trkpt>
      <trkpt lat="48.30319" lon="6.98545">
        <ele>693</ele>
        <time>2014-11-02T10:15:38.994Z</time>
      </trkpt>
      <trkpt lat="48.3033" lon="6.98612">
        <ele>701</ele>
        <time>2014-11-02T10:16:30.988Z</time>
      </trkpt>
      <trkpt lat="48.30332" lon="6.9868">
        <ele>712</ele>
        <time>2014-11-02T10:17:17.989Z</time>
      </trkpt>
      <trkpt lat="48.3034" lon="6.98747">
        <ele>717</ele>
        <time>2014-11-02T10:18:01.975Z</time>
      </trkpt>
      <trkpt lat="48.30356" lon="6.9881">
        <ele>724</ele>
        <time>2014-11-02T10:18:47.991Z</time>
      </trkpt>
      <trkpt lat="48.30373" lon="6.98873">
        <ele>740</ele>
        <time>2014-11-02T10:19:36.99Z</time>
      </trkpt>
      <trkpt lat="48.30374" lon="6.98877">
        <ele>741</ele>
        <time>2014-11-02T10:20:36.991Z</time>
      </trkpt>
      <trkpt lat="48.3034" lon="6.98831">
        <ele>739</ele>
        <time>2014-11-02T10:21:20.993Z</time>
      </trkpt>
      <trkpt lat="48.30304" lon="6.9879">
        <ele>733</ele>
        <time>2014-11-02T10:22:01.971Z</time>
      </trkpt>
      <trkpt lat="48.30274" lon="6.98745">
        <ele>720</ele>
        <time>2014-11-02T10:23:02.968Z</time>
      </trkpt>
      <trkpt lat="48.30276" lon="6.98737">
        <ele>719</ele>
        <time>2014-11-02T10:24:02.976Z</time>
      </trkpt>
      <trkpt lat="48.30278" lon="6.98761">
        <ele>729</ele>
        <time>2014-11-02T10:25:02.976Z</time>
      </trkpt>
      <trkpt lat="48.30276" lon="6.98763">
        <ele>730</ele>
        <time>2014-11-02T10:26:03.973Z</time>
      </trkpt>
      <trkpt lat="48.30278" lon="6.98765">
        <ele>730</ele>
        <time>2014-11-02T10:27:04.964Z</time>
      </trkpt>
      <trkpt lat="48.30278" lon="6.98765">
        <ele>730</ele>
        <time>2014-11-02T10:28:04.978Z</time>
      </trkpt>
      <trkpt lat="48.30278" lon="6.98764">
        <ele>730</ele>
        <time>2014-11-02T10:29:04.985Z</time>
      </trkpt>
      <trkpt lat="48.30278" lon="6.98764">
        <ele>730</ele>
        <time>2014-11-02T10:30:04.99Z</time>
      </trkpt>
      <trkpt lat="48.30278" lon="6.98765">
        <ele>730</ele>
        <time>2014-11-02T10:31:05.991Z</time>
      </trkpt>
      <trkpt lat="48.30278" lon="6.98765">
        <ele>730</ele>
        <time>2014-11-02T10:32:06.006Z</time>
      </trkpt>
      <trkpt lat="48.30278" lon="6.98765">
        <ele>730</ele>
        <time>2014-11-02T10:33:06.006Z</time>
      </trkpt>
      <trkpt lat="48.30278" lon="6.98765">
        <ele>730</ele>
        <time>2014-11-02T10:34:06.014Z</time>
      </trkpt>
      <trkpt lat="48.30275" lon="6.98764">
        <ele>730</ele>
        <time>2014-11-02T10:35:07.013Z</time>
      </trkpt>
      <trkpt lat="48.3028" lon="6.98762">
        <ele>730</ele>
        <time>2014-11-02T10:36:08Z</time>
      </trkpt>
      <trkpt lat="48.30281" lon="6.98762">
        <ele>730</ele>
        <time>2014-11-02T10:37:08.004Z</time>
      </trkpt>
      <trkpt lat="48.30281" lon="6.98762">
        <ele>730</ele>
        <time>2014-11-02T10:38:08.008Z</time>
      </trkpt>
      <trkpt lat="48.3028" lon="6.98762">
        <ele>730</ele>
        <time>2014-11-02T10:39:09.006Z</time>
      </trkpt>
      <trkpt lat="48.30272" lon="6.98806">
        <ele>734</ele>
        <time>2014-11-02T10:40:10.008Z</time>
      </trkpt>
      <trkpt lat="48.30263" lon="6.98872">
        <ele>752</ele>
        <time>2014-11-02T10:41:07.999Z</time>
      </trkpt>
      <trkpt lat="48.30257" lon="6.98936">
        <ele>768</ele>
        <time>2014-11-02T10:42:08.013Z</time>
      </trkpt>
      <trkpt lat="48.30288" lon="6.98934">
        <ele>772</ele>
        <time>2014-11-02T10:43:08.99Z</time>
      </trkpt>
      <trkpt lat="48.30278" lon="6.98997">
        <ele>777</ele>
        <time>2014-11-02T10:43:52.005Z</time>
      </trkpt>
      <trkpt lat="48.30279" lon="6.99024">
        <ele>786</ele>
        <time>2014-11-02T10:44:14.994Z</time>
      </trkpt>
      <trkpt lat="48.30294" lon="6.99084">
        <ele>797</ele>
        <time>2014-11-02T10:45:14.998Z</time>
      </trkpt>
      <trkpt lat="48.30309" lon="6.99129">
        <ele>801</ele>
        <time>2014-11-02T10:45:48Z</time>
      </trkpt>
      <trkpt lat="48.3032" lon="6.99199">
        <ele>808</ele>
        <time>2014-11-02T10:46:33.016Z</time>
      </trkpt>
      <trkpt lat="48.30323" lon="6.99269">
        <ele>814</ele>
        <time>2014-11-02T10:47:16.005Z</time>
      </trkpt>
      <trkpt lat="48.30326" lon="6.99324">
        <ele>820</ele>
        <time>2014-11-02T10:48:17.003Z</time>
      </trkpt>
      <trkpt lat="48.30326" lon="6.99324">
        <ele>820</ele>
        <time>2014-11-02T10:49:17.998Z</time>
      </trkpt>
      <trkpt lat="48.30341" lon="6.99376">
        <ele>828</ele>
        <time>2014-11-02T10:50:18.006Z</time>
      </trkpt>
      <trkpt lat="48.30355" lon="6.99441">
        <ele>835</ele>
        <time>2014-11-02T10:51:00.079Z</time>
      </trkpt>
      <trkpt lat="48.30379" lon="6.99498">
        <ele>837</ele>
        <time>2014-11-02T10:51:45.011Z</time>
      </trkpt>
      <trkpt lat="48.30406" lon="6.99553">
        <ele>843</ele>
        <time>2014-11-02T10:52:26Z</time>
      </trkpt>
      <trkpt lat="48.30425" lon="6.99607">
        <ele>849</ele>
        <time>2014-11-02T10:53:26.005Z</time>
      </trkpt>
      <trkpt lat="48.30417" lon="6.9959">
        <ele>847</ele>
        <time>2014-11-02T10:54:27.009Z</time>
      </trkpt>
      <trkpt lat="48.30417" lon="6.99593">
        <ele>850</ele>
        <time>2014-11-02T10:55:28.001Z</time>
      </trkpt>
      <trkpt lat="48.3042" lon="6.99603">
        <ele>850</ele>
        <time>2014-11-02T10:56:28.015Z</time>
      </trkpt>
      <trkpt lat="48.30435" lon="6.99616">
        <ele>849</ele>
        <time>2014-11-02T10:57:28.999Z</time>
      </trkpt>
      <trkpt lat="48.30426" lon="6.99606">
        <ele>849</ele>
        <time>2014-11-02T10:58:29.003Z</time>
      </trkpt>
      <trkpt lat="48.30427" lon="6.99613">
        <ele>849</ele>
        <time>2014-11-02T10:59:29.004Z</time>
      </trkpt>
      <trkpt lat="48.30463" lon="6.99654">
        <ele>851</ele>
        <time>2014-11-02T10:59:53.01Z</time>
      </trkpt>
      <trkpt lat="48.30485" lon="6.99673">
        <ele>856</ele>
        <time>2014-11-02T11:00:54.01Z</time>
      </trkpt>
      <trkpt lat="48.30485" lon="6.99672">
        <ele>856</ele>
        <time>2014-11-02T11:01:54.018Z</time>
      </trkpt>
      <trkpt lat="48.30516" lon="6.99707">
        <ele>861</ele>
        <time>2014-11-02T11:02:54.029Z</time>
      </trkpt>
      <trkpt lat="48.30544" lon="6.99744">
        <ele>863</ele>
        <time>2014-11-02T11:03:54.034Z</time>
      </trkpt>
      <trkpt lat="48.30558" lon="6.99818">
        <ele>869</ele>
        <time>2014-11-02T11:04:55.03Z</time>
      </trkpt>
      <trkpt lat="48.30561" lon="6.99862">
        <ele>870</ele>
        <time>2014-11-02T11:05:19.02Z</time>
      </trkpt>
      <trkpt lat="48.30573" lon="6.99929">
        <ele>874</ele>
        <time>2014-11-02T11:05:58.025Z</time>
      </trkpt>
      <trkpt lat="48.30598" lon="6.99985">
        <ele>871</ele>
        <time>2014-11-02T11:06:29.055Z</time>
      </trkpt>
      <trkpt lat="48.30618" lon="7.00046">
        <ele>868</ele>
        <time>2014-11-02T11:07:04.999Z</time>
      </trkpt>
      <trkpt lat="48.3064" lon="7.00082">
        <ele>868</ele>
        <time>2014-11-02T11:08:05.018Z</time>
      </trkpt>
      <trkpt lat="48.30667" lon="7.00139">
        <ele>870</ele>
        <time>2014-11-02T11:08:42.979Z</time>
      </trkpt>
      <trkpt lat="48.30694" lon="7.00193">
        <ele>871</ele>
        <time>2014-11-02T11:09:40.03Z</time>
      </trkpt>
      <trkpt lat="48.30744" lon="7.00256">
        <ele>876</ele>
        <time>2014-11-02T11:10:41.006Z</time>
      </trkpt>
      <trkpt lat="48.30776" lon="7.00304">
        <ele>879</ele>
        <time>2014-11-02T11:11:28.009Z</time>
      </trkpt>
      <trkpt lat="48.30803" lon="7.00349">
        <ele>880</ele>
        <time>2014-11-02T11:12:29.015Z</time>
      </trkpt>
      <trkpt lat="48.30801" lon="7.00337">
        <ele>880</ele>
        <time>2014-11-02T11:13:29.026Z</time>
      </trkpt>
      <trkpt lat="48.30801" lon="7.00337">
        <ele>880</ele>
        <time>2014-11-02T11:14:29.11Z</time>
      </trkpt>
      <trkpt lat="48.308" lon="7.00342">
        <ele>880</ele>
        <time>2014-11-02T11:15:30.083Z</time>
      </trkpt>
      <trkpt lat="48.30809" lon="7.00346">
        <ele>880</ele>
        <time>2014-11-02T11:16:31.048Z</time>
      </trkpt>
      <trkpt lat="48.3081" lon="7.0034">
        <ele>880</ele>
        <time>2014-11-02T11:17:31.06Z</time>
      </trkpt>
      <trkpt lat="48.3081" lon="7.0034">
        <ele>880</ele>
        <time>2014-11-02T11:18:31.12Z</time>
      </trkpt>
      <trkpt lat="48.30809" lon="7.00339">
        <ele>880</ele>
        <time>2014-11-02T11:19:32.08Z</time>
      </trkpt>
      <trkpt lat="48.30809" lon="7.00338">
        <ele>880</ele>
        <time>2014-11-02T11:20:32.103Z</time>
      </trkpt>
      <trkpt lat="48.30809" lon="7.00338">
        <ele>880</ele>
        <time>2014-11-02T11:21:32.115Z</time>
      </trkpt>
      <trkpt lat="48.30809" lon="7.00338">
        <ele>880</ele>
        <time>2014-11-02T11:22:32.14Z</time>
      </trkpt>
      <trkpt lat="48.30809" lon="7.00338">
        <ele>880</ele>
        <time>2014-11-02T11:23:32.155Z</time>
      </trkpt>
      <trkpt lat="48.30809" lon="7.00338">
        <ele>880</ele>
        <time>2014-11-02T11:24:32.179Z</time>
      </trkpt>
      <trkpt lat="48.30809" lon="7.00338">
        <ele>880</ele>
        <time>2014-11-02T11:25:32.2Z</time>
      </trkpt>
      <trkpt lat="48.30809" lon="7.00338">
        <ele>880</ele>
        <time>2014-11-02T11:26:32.203Z</time>
      </trkpt>
      <trkpt lat="48.30809" lon="7.00338">
        <ele>880</ele>
        <time>2014-11-02T11:27:32.214Z</time>
      </trkpt>
      <trkpt lat="48.30806" lon="7.00337">
        <ele>880</ele>
        <time>2014-11-02T11:28:32.249Z</time>
      </trkpt>
      <trkpt lat="48.30807" lon="7.00337">
        <ele>880</ele>
        <time>2014-11-02T11:29:32.251Z</time>
      </trkpt>
      <trkpt lat="48.30807" lon="7.00337">
        <ele>880</ele>
        <time>2014-11-02T11:30:33.243Z</time>
      </trkpt>
      <trkpt lat="48.30808" lon="7.00337">
        <ele>880</ele>
        <time>2014-11-02T11:31:33.261Z</time>
      </trkpt>
      <trkpt lat="48.30808" lon="7.00338">
        <ele>880</ele>
        <time>2014-11-02T11:32:33.325Z</time>
      </trkpt>
      <trkpt lat="48.30808" lon="7.00338">
        <ele>880</ele>
        <time>2014-11-02T11:33:34.295Z</time>
      </trkpt>
      <trkpt lat="48.30808" lon="7.00338">
        <ele>880</ele>
        <time>2014-11-02T11:34:34.445Z</time>
      </trkpt>
      <trkpt lat="48.30808" lon="7.00338">
        <ele>880</ele>
        <time>2014-11-02T11:35:35.39Z</time>
      </trkpt>
      <trkpt lat="48.30808" lon="7.00338">
        <ele>880</ele>
        <time>2014-11-02T11:36:36.371Z</time>
      </trkpt>
      <trkpt lat="48.30808" lon="7.00338">
        <ele>880</ele>
        <time>2014-11-02T11:37:36.378Z</time>
      </trkpt>
      <trkpt lat="48.30809" lon="7.00338">
        <ele>880</ele>
        <time>2014-11-02T11:38:36.435Z</time>
      </trkpt>
      <trkpt lat="48.3081" lon="7.00339">
        <ele>880</ele>
        <time>2014-11-02T11:39:36.465Z</time>
      </trkpt>
      <trkpt lat="48.3081" lon="7.00339">
        <ele>880</ele>
        <time>2014-11-02T11:40:36.605Z</time>
      </trkpt>
      <trkpt lat="48.3081" lon="7.00339">
        <ele>880</ele>
        <time>2014-11-02T11:41:36.609Z</time>
      </trkpt>
      <trkpt lat="48.3081" lon="7.00339">
        <ele>880</ele>
        <time>2014-11-02T11:42:37.545Z</time>
      </trkpt>
      <trkpt lat="48.3081" lon="7.00339">
        <ele>880</ele>
        <time>2014-11-02T11:43:38.54Z</time>
      </trkpt>
      <trkpt lat="48.3081" lon="7.00339">
        <ele>880</ele>
        <time>2014-11-02T11:44:38.553Z</time>
      </trkpt>
      <trkpt lat="48.30811" lon="7.0034">
        <ele>880</ele>
        <time>2014-11-02T11:45:38.561Z</time>
      </trkpt>
      <trkpt lat="48.30811" lon="7.00339">
        <ele>880</ele>
        <time>2014-11-02T11:46:38.573Z</time>
      </trkpt>
      <trkpt lat="48.30811" lon="7.00339">
        <ele>880</ele>
        <time>2014-11-02T11:47:38.575Z</time>
      </trkpt>
      <trkpt lat="48.30811" lon="7.00339">
        <ele>880</ele>
        <time>2014-11-02T11:48:38.586Z</time>
      </trkpt>
      <trkpt lat="48.30811" lon="7.00339">
        <ele>880</ele>
        <time>2014-11-02T11:49:38.693Z</time>
      </trkpt>
      <trkpt lat="48.30811" lon="7.00339">
        <ele>880</ele>
        <time>2014-11-02T11:50:39.61Z</time>
      </trkpt>
      <trkpt lat="48.30811" lon="7.00339">
        <ele>880</ele>
        <time>2014-11-02T11:51:40.625Z</time>
      </trkpt>
      <trkpt lat="48.30811" lon="7.00339">
        <ele>880</ele>
        <time>2014-11-02T11:52:41.619Z</time>
      </trkpt>
      <trkpt lat="48.30811" lon="7.00339">
        <ele>880</ele>
        <time>2014-11-02T11:53:42.595Z</time>
      </trkpt>
      <trkpt lat="48.30811" lon="7.00339">
        <ele>880</ele>
        <time>2014-11-02T11:54:42.685Z</time>
      </trkpt>
      <trkpt lat="48.30811" lon="7.00339">
        <ele>880</ele>
        <time>2014-11-02T11:55:42.755Z</time>
      </trkpt>
      <trkpt lat="48.30811" lon="7.00339">
        <ele>880</ele>
        <time>2014-11-02T11:56:43.618Z</time>
      </trkpt>
      <trkpt lat="48.30811" lon="7.00339">
        <ele>880</ele>
        <time>2014-11-02T11:57:44.585Z</time>
      </trkpt>
      <trkpt lat="48.3081" lon="7.00344">
        <ele>880</ele>
        <time>2014-11-02T11:58:44.751Z</time>
      </trkpt>
      <trkpt lat="48.30802" lon="7.00341">
        <ele>880</ele>
        <time>2014-11-02T11:59:45.575Z</time>
      </trkpt>
      <trkpt lat="48.30803" lon="7.00343">
        <ele>880</ele>
        <time>2014-11-02T12:00:46.543Z</time>
      </trkpt>
      <trkpt lat="48.30803" lon="7.00343">
        <ele>880</ele>
        <time>2014-11-02T12:01:47.496Z</time>
      </trkpt>
      <trkpt lat="48.30802" lon="7.00341">
        <ele>880</ele>
        <time>2014-11-02T12:02:48.494Z</time>
      </trkpt>
      <trkpt lat="48.30802" lon="7.00341">
        <ele>880</ele>
        <time>2014-11-02T12:03:49.476Z</time>
      </trkpt>
      <trkpt lat="48.30802" lon="7.00341">
        <ele>880</ele>
        <time>2014-11-02T12:04:50.46Z</time>
      </trkpt>
      <trkpt lat="48.30801" lon="7.00345">
        <ele>880</ele>
        <time>2014-11-02T12:05:50.464Z</time>
      </trkpt>
      <trkpt lat="48.30801" lon="7.00345">
        <ele>880</ele>
        <time>2014-11-02T12:06:51.448Z</time>
      </trkpt>
      <trkpt lat="48.30801" lon="7.00345">
        <ele>880</ele>
        <time>2014-11-02T12:07:51.46Z</time>
      </trkpt>
      <trkpt lat="48.30802" lon="7.00344">
        <ele>880</ele>
        <time>2014-11-02T12:08:51.466Z</time>
      </trkpt>
      <trkpt lat="48.30804" lon="7.00345">
        <ele>880</ele>
        <time>2014-11-02T12:09:52.451Z</time>
      </trkpt>
      <trkpt lat="48.30801" lon="7.00341">
        <ele>880</ele>
        <time>2014-11-02T12:10:52.455Z</time>
      </trkpt>
      <trkpt lat="48.30803" lon="7.00342">
        <ele>880</ele>
        <time>2014-11-02T12:11:53.42Z</time>
      </trkpt>
      <trkpt lat="48.30802" lon="7.00338">
        <ele>880</ele>
        <time>2014-11-02T12:12:54.394Z</time>
      </trkpt>
      <trkpt lat="48.30799" lon="7.00335">
        <ele>880</ele>
        <time>2014-11-02T12:13:55.35Z</time>
      </trkpt>
      <trkpt lat="48.30782" lon="7.0031">
        <ele>879</ele>
        <time>2014-11-02T12:14:19.351Z</time>
      </trkpt>
      <trkpt lat="48.30748" lon="7.00263">
        <ele>875</ele>
        <time>2014-11-02T12:15:07.319Z</time>
      </trkpt>
      <trkpt lat="48.30749" lon="7.0024">
        <ele>877</ele>
        <time>2014-11-02T12:15:19.329Z</time>
      </trkpt>
      <trkpt lat="48.30752" lon="7.00217">
        <ele>875</ele>
        <time>2014-11-02T12:15:30.446Z</time>
      </trkpt>
      <trkpt lat="48.30751" lon="7.00147">
        <ele>866</ele>
        <time>2014-11-02T12:16:17.449Z</time>
      </trkpt>
      <trkpt lat="48.30753" lon="7.00076">
        <ele>854</ele>
        <time>2014-11-02T12:17:05.466Z</time>
      </trkpt>
      <trkpt lat="48.30732" lon="7.00009">
        <ele>848</ele>
        <time>2014-11-02T12:17:54.446Z</time>
      </trkpt>
      <trkpt lat="48.30778" lon="6.99999">
        <ele>836</ele>
        <time>2014-11-02T12:18:35.44Z</time>
      </trkpt>
      <trkpt lat="48.30809" lon="6.99949">
        <ele>831</ele>
        <time>2014-11-02T12:19:22.431Z</time>
      </trkpt>
      <trkpt lat="48.30853" lon="6.99932">
        <ele>823</ele>
        <time>2014-11-02T12:20:00.431Z</time>
      </trkpt>
      <trkpt lat="48.30869" lon="6.99931">
        <ele>823</ele>
        <time>2014-11-02T12:20:14.379Z</time>
      </trkpt>
      <trkpt lat="48.30903" lon="6.99944">
        <ele>822</ele>
        <time>2014-11-02T12:21:15.276Z</time>
      </trkpt>
      <trkpt lat="48.30889" lon="6.99936">
        <ele>822</ele>
        <time>2014-11-02T12:21:43.27Z</time>
      </trkpt>
      <trkpt lat="48.30844" lon="6.99929">
        <ele>822</ele>
        <time>2014-11-02T12:22:22.285Z</time>
      </trkpt>
      <trkpt lat="48.30818" lon="6.99939">
        <ele>828</ele>
        <time>2014-11-02T12:22:45.289Z</time>
      </trkpt>
      <trkpt lat="48.30779" lon="6.99972">
        <ele>834</ele>
        <time>2014-11-02T12:23:37.328Z</time>
      </trkpt>
      <trkpt lat="48.30751" lon="6.99919">
        <ele>827</ele>
        <time>2014-11-02T12:24:35.323Z</time>
      </trkpt>
      <trkpt lat="48.30737" lon="6.99854">
        <ele>821</ele>
        <time>2014-11-02T12:25:13.274Z</time>
      </trkpt>
      <trkpt lat="48.30729" lon="6.99787">
        <ele>815</ele>
        <time>2014-11-02T12:25:49.186Z</time>
      </trkpt>
      <trkpt lat="48.30735" lon="6.99777">
        <ele>813</ele>
        <time>2014-11-02T12:26:50.134Z</time>
      </trkpt>
      <trkpt lat="48.30768" lon="6.99824">
        <ele>799</ele>
        <time>2014-11-02T12:27:32.118Z</time>
      </trkpt>
      <trkpt lat="48.30817" lon="6.99829">
        <ele>788</ele>
        <time>2014-11-02T12:28:28.095Z</time>
      </trkpt>
      <trkpt lat="48.30853" lon="6.9981">
        <ele>770</ele>
        <time>2014-11-02T12:29:23.07Z</time>
      </trkpt>
      <trkpt lat="48.30898" lon="6.99817">
        <ele>766</ele>
        <time>2014-11-02T12:30:23.109Z</time>
      </trkpt>
      <trkpt lat="48.30943" lon="6.99815">
        <ele>751</ele>
        <time>2014-11-02T12:31:08.175Z</time>
      </trkpt>
      <trkpt lat="48.30988" lon="6.99819">
        <ele>747</ele>
        <time>2014-11-02T12:31:52.116Z</time>
      </trkpt>
      <trkpt lat="48.31011" lon="6.99826">
        <ele>738</ele>
        <time>2014-11-02T12:32:53.075Z</time>
      </trkpt>
      <trkpt lat="48.3105" lon="6.99862">
        <ele>740</ele>
        <time>2014-11-02T12:33:53.061Z</time>
      </trkpt>
      <trkpt lat="48.31078" lon="6.99915">
        <ele>735</ele>
        <time>2014-11-02T12:34:36.048Z</time>
      </trkpt>
      <trkpt lat="48.31091" lon="6.9996">
        <ele>723</ele>
        <time>2014-11-02T12:35:37.04Z</time>
      </trkpt>
      <trkpt lat="48.31095" lon="6.9998">
        <ele>726</ele>
        <time>2014-11-02T12:35:45.038Z</time>
      </trkpt>
      <trkpt lat="48.31118" lon="7.00038">
        <ele>727</ele>
        <time>2014-11-02T12:36:31.035Z</time>
      </trkpt>
      <trkpt lat="48.31132" lon="7.00073">
        <ele>724</ele>
        <time>2014-11-02T12:37:31.038Z</time>
      </trkpt>
      <trkpt lat="48.31153" lon="7.00109">
        <ele>727</ele>
        <time>2014-11-02T12:38:16.048Z</time>
      </trkpt>
      <trkpt lat="48.31198" lon="7.00123">
        <ele>699</ele>
        <time>2014-11-02T12:39:10.025Z</time>
      </trkpt>
      <trkpt lat="48.31232" lon="7.00102">
        <ele>688</ele>
        <time>2014-11-02T12:40:11.015Z</time>
      </trkpt>
      <trkpt lat="48.31267" lon="7.00057">
        <ele>665</ele>
        <time>2014-11-02T12:41:04.015Z</time>
      </trkpt>
      <trkpt lat="48.31297" lon="7.00039">
        <ele>662</ele>
        <time>2014-11-02T12:41:37.008Z</time>
      </trkpt>
      <trkpt lat="48.31328" lon="6.99989">
        <ele>648</ele>
        <time>2014-11-02T12:42:26.055Z</time>
      </trkpt>
      <trkpt lat="48.31355" lon="6.99934">
        <ele>646</ele>
        <time>2014-11-02T12:43:13.051Z</time>
      </trkpt>
      <trkpt lat="48.31368" lon="6.99868">
        <ele>633</ele>
        <time>2014-11-02T12:43:47.075Z</time>
      </trkpt>
      <trkpt lat="48.31368" lon="6.99809">
        <ele>618</ele>
        <time>2014-11-02T12:44:47.096Z</time>
      </trkpt>
      <trkpt lat="48.31386" lon="6.99746">
        <ele>607</ele>
        <time>2014-11-02T12:45:33.063Z</time>
      </trkpt>
      <trkpt lat="48.31391" lon="6.99677">
        <ele>602</ele>
        <time>2014-11-02T12:46:03.076Z</time>
      </trkpt>
      <trkpt lat="48.31413" lon="6.99618">
        <ele>592</ele>
        <time>2014-11-02T12:46:52.074Z</time>
      </trkpt>
      <trkpt lat="48.31442" lon="6.99565">
        <ele>595</ele>
        <time>2014-11-02T12:47:29.06Z</time>
      </trkpt>
      <trkpt lat="48.31466" lon="6.99506">
        <ele>594</ele>
        <time>2014-11-02T12:48:04.054Z</time>
      </trkpt>
      <trkpt lat="48.31483" lon="6.99442">
        <ele>581</ele>
        <time>2014-11-02T12:48:42.059Z</time>
      </trkpt>
      <trkpt lat="48.3151" lon="6.99384">
        <ele>586</ele>
        <time>2014-11-02T12:49:26.051Z</time>
      </trkpt>
      <trkpt lat="48.31509" lon="6.99368">
        <ele>584</ele>
        <time>2014-11-02T12:50:26.056Z</time>
      </trkpt>
      <trkpt lat="48.31502" lon="6.99368">
        <ele>583</ele>
        <time>2014-11-02T12:51:26.069Z</time>
      </trkpt>
      <trkpt lat="48.3148" lon="6.99369">
        <ele>569</ele>
        <time>2014-11-02T12:51:52.069Z</time>
      </trkpt>
      <trkpt lat="48.3144" lon="6.99404">
        <ele>565</ele>
        <time>2014-11-02T12:52:31.054Z</time>
      </trkpt>
      <trkpt lat="48.31425" lon="6.99376">
        <ele>564</ele>
        <time>2014-11-02T12:53:31.061Z</time>
      </trkpt>
      <trkpt lat="48.31455" lon="6.99323">
        <ele>559</ele>
        <time>2014-11-02T12:54:21.075Z</time>
      </trkpt>
      <trkpt lat="48.31466" lon="6.99257">
        <ele>556</ele>
        <time>2014-11-02T12:55:12.04Z</time>
      </trkpt>
      <trkpt lat="48.31477" lon="6.99225">
        <ele>552</ele>
        <time>2014-11-02T12:56:12.045Z</time>
      </trkpt>
      <trkpt lat="48.31476" lon="6.99225">
        <ele>552</ele>
        <time>2014-11-02T12:57:12.193Z</time>
      </trkpt>
      <trkpt lat="48.31466" lon="6.9922">
        <ele>551</ele>
        <time>2014-11-02T12:58:13.063Z</time>
      </trkpt>
      <trkpt lat="48.31468" lon="6.99152">
        <ele>547</ele>
        <time>2014-11-02T12:59:13.101Z</time>
      </trkpt>
      <trkpt lat="48.31455" lon="6.99074">
        <ele>547</ele>
        <time>2014-11-02T12:59:53.085Z</time>
      </trkpt>
      <trkpt lat="48.31432" lon="6.99016">
        <ele>550</ele>
        <time>2014-11-02T13:00:37.078Z</time>
      </trkpt>
      <trkpt lat="48.31423" lon="6.98949">
        <ele>546</ele>
        <time>2014-11-02T13:01:20.093Z</time>
      </trkpt>
      <trkpt lat="48.31409" lon="6.98949">
        <ele>559</ele>
        <time>2014-11-02T13:01:24.085Z</time>
      </trkpt>
      <trkpt lat="48.31435" lon="6.9889">
        <ele>542</ele>
        <time>2014-11-02T13:02:25.018Z</time>
      </trkpt>
      <trkpt lat="48.31447" lon="6.98876">
        <ele>540</ele>
        <time>2014-11-02T13:03:25.045Z</time>
      </trkpt>
      <trkpt lat="48.31445" lon="6.98866">
        <ele>540</ele>
        <time>2014-11-02T13:04:25.046Z</time>
      </trkpt>
      <trkpt lat="48.31453" lon="6.98872">
        <ele>539</ele>
        <time>2014-11-02T13:05:25.064Z</time>
      </trkpt>
      <trkpt lat="48.31448" lon="6.98876">
        <ele>540</ele>
        <time>2014-11-02T13:06:26.036Z</time>
      </trkpt>
      <trkpt lat="48.31452" lon="6.98883">
        <ele>539</ele>
        <time>2014-11-02T13:07:26.045Z</time>
      </trkpt>
      <trkpt lat="48.3145" lon="6.98881">
        <ele>540</ele>
        <time>2014-11-02T13:08:26.058Z</time>
      </trkpt>
      <trkpt lat="48.31464" lon="6.98946">
        <ele>541</ele>
        <time>2014-11-02T13:09:09.1Z</time>
      </trkpt>
      <trkpt lat="48.31503" lon="6.98979">
        <ele>531</ele>
        <time>2014-11-02T13:09:54.154Z</time>
      </trkpt>
      <trkpt lat="48.31531" lon="6.98958">
        <ele>528</ele>
        <time>2014-11-02T13:10:15.06Z</time>
      </trkpt>
      <trkpt lat="48.31539" lon="6.98939">
        <ele>527</ele>
        <time>2014-11-02T13:10:23.045Z</time>
      </trkpt>
      <trkpt lat="48.31564" lon="6.98953">
        <ele>526</ele>
        <time>2014-11-02T13:11:05.079Z</time>
      </trkpt>
      <trkpt lat="48.31582" lon="6.98925">
        <ele>519</ele>
        <time>2014-11-02T13:11:25.084Z</time>
      </trkpt>
      <trkpt lat="48.3159" lon="6.98907">
        <ele>520</ele>
        <time>2014-11-02T13:11:33.884Z</time>
      </trkpt>
      <trkpt lat="48.31626" lon="6.9886">
        <ele>526</ele>
        <time>2014-11-02T13:12:08.006Z</time>
      </trkpt>
      <trkpt lat="48.31655" lon="6.98801">
        <ele>523</ele>
        <time>2014-11-02T13:12:43.035Z</time>
      </trkpt>
      <trkpt lat="48.31676" lon="6.98733">
        <ele>532</ele>
        <time>2014-11-02T13:13:20.03Z</time>
      </trkpt>
      <trkpt lat="48.31682" lon="6.9872">
        <ele>534</ele>
        <time>2014-11-02T13:14:20.049Z</time>
      </trkpt>
      <trkpt lat="48.317" lon="6.98659">
        <ele>528</ele>
        <time>2014-11-02T13:15:07.041Z</time>
      </trkpt>
      <trkpt lat="48.31708" lon="6.98637">
        <ele>529</ele>
        <time>2014-11-02T13:15:17.04Z</time>
      </trkpt>
      <trkpt lat="48.31753" lon="6.9861">
        <ele>544</ele>
        <time>2014-11-02T13:16:02.005Z</time>
      </trkpt>
      <trkpt lat="48.318" lon="6.98619">
        <ele>547</ele>
        <time>2014-11-02T13:16:38.986Z</time>
      </trkpt>
      <trkpt lat="48.31823" lon="6.98612">
        <ele>548</ele>
        <time>2014-11-02T13:17:39.913Z</time>
      </trkpt>
      <trkpt lat="48.31825" lon="6.98607">
        <ele>547</ele>
        <time>2014-11-02T13:18:39.99Z</time>
      </trkpt>
      <trkpt lat="48.3184" lon="6.98598">
        <ele>549</ele>
        <time>2014-11-02T13:19:15.978Z</time>
      </trkpt>
      <trkpt lat="48.31851" lon="6.98577">
        <ele>546</ele>
        <time>2014-11-02T13:19:29.994Z</time>
      </trkpt>
      <trkpt lat="48.31856" lon="6.98552">
        <ele>546</ele>
        <time>2014-11-02T13:19:39.988Z</time>
      </trkpt>
      <trkpt lat="48.31855" lon="6.98507">
        <ele>544</ele>
        <time>2014-11-02T13:20:01.014Z</time>
      </trkpt>
      <trkpt lat="48.3186" lon="6.98474">
        <ele>544</ele>
        <time>2014-11-02T13:20:18.019Z</time>
      </trkpt>
      <trkpt lat="48.31856" lon="6.98403">
        <ele>539</ele>
        <time>2014-11-02T13:20:57.023Z</time>
      </trkpt>
      <trkpt lat="48.31858" lon="6.98377">
        <ele>540</ele>
        <time>2014-11-02T13:21:10Z</time>
      </trkpt>
      <trkpt lat="48.31868" lon="6.98276">
        <ele>536</ele>
        <time>2014-11-02T13:22:06.006Z</time>
      </trkpt>
      <trkpt lat="48.31885" lon="6.98213">
        <ele>532</ele>
        <time>2014-11-02T13:22:40.001Z</time>
      </trkpt>
      <trkpt lat="48.31909" lon="6.98144">
        <ele>528</ele>
        <time>2014-11-02T13:23:16.005Z</time>
      </trkpt>
      <trkpt lat="48.31944" lon="6.98093">
        <ele>529</ele>
        <time>2014-11-02T13:23:53.996Z</time>
      </trkpt>
      <trkpt lat="48.31995" lon="6.9805">
        <ele>522</ele>
        <time>2014-11-02T13:24:39.001Z</time>
      </trkpt>
      <trkpt lat="48.32027" lon="6.98047">
        <ele>522</ele>
        <time>2014-11-02T13:25:03.006Z</time>
      </trkpt>
      <trkpt lat="48.32059" lon="6.98044">
        <ele>522</ele>
        <time>2014-11-02T13:25:26.004Z</time>
      </trkpt>
      <trkpt lat="48.32073" lon="6.98031">
        <ele>521</ele>
        <time>2014-11-02T13:25:37.999Z</time>
      </trkpt>
      <trkpt lat="48.3208" lon="6.98012">
        <ele>521</ele>
        <time>2014-11-02T13:25:50.004Z</time>
      </trkpt>
      <trkpt lat="48.3209" lon="6.97985">
        <ele>525</ele>
        <time>2014-11-02T13:26:04.003Z</time>
      </trkpt>
      <trkpt lat="48.32091" lon="6.9796">
        <ele>528</ele>
        <time>2014-11-02T13:26:18Z</time>
      </trkpt>
      <trkpt lat="48.32096" lon="6.97937">
        <ele>528</ele>
        <time>2014-11-02T13:26:29.016Z</time>
      </trkpt>
      <trkpt lat="48.32093" lon="6.97893">
        <ele>531</ele>
        <time>2014-11-02T13:26:49.069Z</time>
      </trkpt>
      <trkpt lat="48.321" lon="6.97875">
        <ele>533</ele>
        <time>2014-11-02T13:27:00.029Z</time>
      </trkpt>
      <trkpt lat="48.32108" lon="6.9784">
        <ele>533</ele>
        <time>2014-11-02T13:27:20.011Z</time>
      </trkpt>
      <trkpt lat="48.32094" lon="6.97777">
        <ele>537</ele>
        <time>2014-11-02T13:27:51.015Z</time>
      </trkpt>
      <trkpt lat="48.32092" lon="6.97757">
        <ele>534</ele>
        <time>2014-11-02T13:28:01.019Z</time>
      </trkpt>
      <trkpt lat="48.32086" lon="6.97738">
        <ele>536</ele>
        <time>2014-11-02T13:28:12.02Z</time>
      </trkpt>
      <trkpt lat="48.32078" lon="6.97716">
        <ele>529</ele>
        <time>2014-11-02T13:28:25.058Z</time>
      </trkpt>
      <trkpt lat="48.32063" lon="6.97685">
        <ele>531</ele>
        <time>2014-11-02T13:28:43.01Z</time>
      </trkpt>
      <trkpt lat="48.32043" lon="6.97646">
        <ele>535</ele>
        <time>2014-11-02T13:29:05.019Z</time>
      </trkpt>
      <trkpt lat="48.32044" lon="6.97624">
        <ele>535</ele>
        <time>2014-11-02T13:29:18.013Z</time>
      </trkpt>
      <trkpt lat="48.32054" lon="6.97594">
        <ele>538</ele>
        <time>2014-11-02T13:29:35.011Z</time>
      </trkpt>
      <trkpt lat="48.32056" lon="6.97573">
        <ele>541</ele>
        <time>2014-11-02T13:29:48.006Z</time>
      </trkpt>
      <trkpt lat="48.32056" lon="6.97505">
        <ele>541</ele>
        <time>2014-11-02T13:30:32.013Z</time>
      </trkpt>
      <trkpt lat="48.32055" lon="6.97474">
        <ele>541</ele>
        <time>2014-11-02T13:30:48.015Z</time>
      </trkpt>
      <trkpt lat="48.32048" lon="6.97387">
        <ele>541</ele>
        <time>2014-11-02T13:31:34.014Z</time>
      </trkpt>
      <trkpt lat="48.32046" lon="6.97367">
        <ele>541</ele>
        <time>2014-11-02T13:31:45.006Z</time>
      </trkpt>
      <trkpt lat="48.32046" lon="6.97302">
        <ele>543</ele>
        <time>2014-11-02T13:32:19.008Z</time>
      </trkpt>
      <trkpt lat="48.32055" lon="6.97284">
        <ele>543</ele>
        <time>2014-11-02T13:32:29.01Z</time>
      </trkpt>
      <trkpt lat="48.32062" lon="6.97262">
        <ele>544</ele>
        <time>2014-11-02T13:32:40.005Z</time>
      </trkpt>
      <trkpt lat="48.32074" lon="6.97211">
        <ele>549</ele>
        <time>2014-11-02T13:33:01.008Z</time>
      </trkpt>
      <trkpt lat="48.32104" lon="6.97167">
        <ele>546</ele>
        <time>2014-11-02T13:33:29.01Z</time>
      </trkpt>
      <trkpt lat="48.32105" lon="6.97147">
        <ele>552</ele>
        <time>2014-11-02T13:33:40.025Z</time>
      </trkpt>
      <trkpt lat="48.32105" lon="6.97128">
        <ele>553</ele>
        <time>2014-11-02T13:34:41.005Z</time>
      </trkpt>
      <trkpt lat="48.32101" lon="6.97121">
        <ele>555</ele>
        <time>2014-11-02T13:35:41.025Z</time>
      </trkpt>
      <trkpt lat="48.32114" lon="6.97056">
        <ele>566</ele>
        <time>2014-11-02T13:36:39.013Z</time>
      </trkpt>
      <trkpt lat="48.32136" lon="6.96996">
        <ele>575</ele>
        <time>2014-11-02T13:37:27.011Z</time>
      </trkpt>
      <trkpt lat="48.32164" lon="6.96941">
        <ele>580</ele>
        <time>2014-11-02T13:38:23.999Z</time>
      </trkpt>
      <trkpt lat="48.3219" lon="6.96883">
        <ele>577</ele>
        <time>2014-11-02T13:39:11.039Z</time>
      </trkpt>
      <trkpt lat="48.32217" lon="6.96828">
        <ele>572</ele>
        <time>2014-11-02T13:39:54.984Z</time>
      </trkpt>
      <trkpt lat="48.32235" lon="6.96765">
        <ele>572</ele>
        <time>2014-11-02T13:40:31.001Z</time>
      </trkpt>
      <trkpt lat="48.32238" lon="6.96739">
        <ele>570</ele>
        <time>2014-11-02T13:40:45.998Z</time>
      </trkpt>
      <trkpt lat="48.32242" lon="6.96719">
        <ele>569</ele>
        <time>2014-11-02T13:40:53.999Z</time>
      </trkpt>
      <trkpt lat="48.32246" lon="6.96692">
        <ele>568</ele>
        <time>2014-11-02T13:41:07.988Z</time>
      </trkpt>
      <trkpt lat="48.32249" lon="6.96671">
        <ele>568</ele>
        <time>2014-11-02T13:41:19.005Z</time>
      </trkpt>
      <trkpt lat="48.32248" lon="6.96647">
        <ele>564</ele>
        <time>2014-11-02T13:41:31.994Z</time>
      </trkpt>
      <trkpt lat="48.32256" lon="6.96594">
        <ele>559</ele>
        <time>2014-11-02T13:42:05.025Z</time>
      </trkpt>
      <trkpt lat="48.3226" lon="6.96563">
        <ele>559</ele>
        <time>2014-11-02T13:42:21.011Z</time>
      </trkpt>
      <trkpt lat="48.32263" lon="6.96541">
        <ele>559</ele>
        <time>2014-11-02T13:42:34.009Z</time>
      </trkpt>
      <trkpt lat="48.32272" lon="6.96528">
        <ele>560</ele>
        <time>2014-11-02T13:43:34.015Z</time>
      </trkpt>
      <trkpt lat="48.32261" lon="6.96535">
        <ele>560</ele>
        <time>2014-11-02T13:44:34.026Z</time>
      </trkpt>
      <trkpt lat="48.32263" lon="6.96536">
        <ele>560</ele>
        <time>2014-11-02T13:45:35.024Z</time>
      </trkpt>
      <trkpt lat="48.32266" lon="6.96529">
        <ele>560</ele>
        <time>2014-11-02T13:46:35.03Z</time>
      </trkpt>
      <trkpt lat="48.32266" lon="6.96531">
        <ele>560</ele>
        <time>2014-11-02T13:47:35.08Z</time>
      </trkpt>
      <trkpt lat="48.32266" lon="6.96531">
        <ele>560</ele>
        <time>2014-11-02T13:48:36.056Z</time>
      </trkpt>
      <trkpt lat="48.32273" lon="6.96463">
        <ele>568</ele>
        <time>2014-11-02T13:49:26.053Z</time>
      </trkpt>
      <trkpt lat="48.3228" lon="6.96404">
        <ele>577</ele>
        <time>2014-11-02T13:50:27.049Z</time>
      </trkpt>
      <trkpt lat="48.32278" lon="6.96348">
        <ele>580</ele>
        <time>2014-11-02T13:51:27.053Z</time>
      </trkpt>
      <trkpt lat="48.32277" lon="6.96335">
        <ele>581</ele>
        <time>2014-11-02T13:52:28.048Z</time>
      </trkpt>
      <trkpt lat="48.32273" lon="6.96267">
        <ele>585</ele>
        <time>2014-11-02T13:53:15.076Z</time>
      </trkpt>
      <trkpt lat="48.32281" lon="6.96197">
        <ele>584</ele>
        <time>2014-11-02T13:53:54.053Z</time>
      </trkpt>
      <trkpt lat="48.32289" lon="6.96121">
        <ele>584</ele>
        <time>2014-11-02T13:54:30.044Z</time>
      </trkpt>
      <trkpt lat="48.32299" lon="6.96052">
        <ele>591</ele>
        <time>2014-11-02T13:55:09.031Z</time>
      </trkpt>
      <trkpt lat="48.323" lon="6.95983">
        <ele>604</ele>
        <time>2014-11-02T13:55:58.033Z</time>
      </trkpt>
      <trkpt lat="48.32286" lon="6.95892">
        <ele>619</ele>
        <time>2014-11-02T13:56:47.046Z</time>
      </trkpt>
      <trkpt lat="48.32278" lon="6.95853">
        <ele>624</ele>
        <time>2014-11-02T13:57:48.044Z</time>
      </trkpt>
      <trkpt lat="48.32267" lon="6.95789">
        <ele>636</ele>
        <time>2014-11-02T13:58:49.035Z</time>
      </trkpt>
      <trkpt lat="48.3226" lon="6.95761">
        <ele>643</ele>
        <time>2014-11-02T13:59:50.026Z</time>
      </trkpt>
      <trkpt lat="48.3225" lon="6.95718">
        <ele>648</ele>
        <time>2014-11-02T14:00:50.033Z</time>
      </trkpt>
      <trkpt lat="48.32252" lon="6.95718">
        <ele>642</ele>
        <time>2014-11-02T14:01:51.013Z</time>
      </trkpt>
      <trkpt lat="48.32252" lon="6.95719">
        <ele>642</ele>
        <time>2014-11-02T14:02:51.024Z</time>
      </trkpt>
      <trkpt lat="48.32252" lon="6.95682">
        <ele>643</ele>
        <time>2014-11-02T14:03:51.035Z</time>
      </trkpt>
      <trkpt lat="48.32207" lon="6.95664">
        <ele>641</ele>
        <time>2014-11-02T14:04:51.028Z</time>
      </trkpt>
      <trkpt lat="48.32202" lon="6.95666">
        <ele>641</ele>
        <time>2014-11-02T14:05:51.105Z</time>
      </trkpt>
      <trkpt lat="48.32198" lon="6.95666">
        <ele>641</ele>
        <time>2014-11-02T14:06:52.04Z</time>
      </trkpt>
      <trkpt lat="48.32196" lon="6.9567">
        <ele>647</ele>
        <time>2014-11-02T14:07:53.029Z</time>
      </trkpt>
      <trkpt lat="48.32196" lon="6.9567">
        <ele>647</ele>
        <time>2014-11-02T14:08:53.07Z</time>
      </trkpt>
      <trkpt lat="48.32194" lon="6.95667">
        <ele>647</ele>
        <time>2014-11-02T14:09:54.06Z</time>
      </trkpt>
      <trkpt lat="48.3221" lon="6.95663">
        <ele>641</ele>
        <time>2014-11-02T14:10:54.104Z</time>
      </trkpt>
      <trkpt lat="48.32194" lon="6.95679">
        <ele>647</ele>
        <time>2014-11-02T14:11:55.093Z</time>
      </trkpt>
      <trkpt lat="48.32179" lon="6.95666">
        <ele>643</ele>
        <time>2014-11-02T14:12:22.104Z</time>
      </trkpt>
      <trkpt lat="48.32184" lon="6.95629">
        <ele>637</ele>
        <time>2014-11-02T14:13:23.098Z</time>
      </trkpt>
      <trkpt lat="48.32202" lon="6.95607">
        <ele>634</ele>
        <time>2014-11-02T14:14:23.103Z</time>
      </trkpt>
      <trkpt lat="48.32154" lon="6.95584">
        <ele>625</ele>
        <time>2014-11-02T14:15:07.09Z</time>
      </trkpt>
      <trkpt lat="48.32132" lon="6.95583">
        <ele>614</ele>
        <time>2014-11-02T14:15:26.064Z</time>
      </trkpt>
      <trkpt lat="48.32114" lon="6.9557">
        <ele>612</ele>
        <time>2014-11-02T14:15:45.065Z</time>
      </trkpt>
      <trkpt lat="48.32097" lon="6.95565">
        <ele>612</ele>
        <time>2014-11-02T14:15:58.075Z</time>
      </trkpt>
      <trkpt lat="48.3206" lon="6.95539">
        <ele>601</ele>
        <time>2014-11-02T14:16:33.095Z</time>
      </trkpt>
      <trkpt lat="48.32061" lon="6.95471">
        <ele>599</ele>
        <time>2014-11-02T14:17:23.045Z</time>
      </trkpt>
      <trkpt lat="48.32062" lon="6.95443">
        <ele>596</ele>
        <time>2014-11-02T14:17:40.045Z</time>
      </trkpt>
      <trkpt lat="48.32055" lon="6.95422">
        <ele>595</ele>
        <time>2014-11-02T14:17:47.045Z</time>
      </trkpt>
      <trkpt lat="48.32068" lon="6.95413">
        <ele>587</ele>
        <time>2014-11-02T14:18:47.084Z</time>
      </trkpt>
      <trkpt lat="48.3211" lon="6.95412">
        <ele>574</ele>
        <time>2014-11-02T14:19:17.08Z</time>
      </trkpt>
      <trkpt lat="48.32155" lon="6.95402">
        <ele>569</ele>
        <time>2014-11-02T14:20:00.068Z</time>
      </trkpt>
      <trkpt lat="48.32221" lon="6.95403">
        <ele>562</ele>
        <time>2014-11-02T14:20:54.054Z</time>
      </trkpt>
      <trkpt lat="48.32278" lon="6.95416">
        <ele>561</ele>
        <time>2014-11-02T14:21:34.043Z</time>
      </trkpt>
      <trkpt lat="48.32299" lon="6.95414">
        <ele>560</ele>
        <time>2014-11-02T14:21:46.04Z</time>
      </trkpt>
      <trkpt lat="48.32316" lon="6.95412">
        <ele>561</ele>
        <time>2014-11-02T14:21:55.055Z</time>
      </trkpt>
      <trkpt lat="48.3233" lon="6.95411">
        <ele>563</ele>
        <time>2014-11-02T14:22:04.064Z</time>
      </trkpt>
      <trkpt lat="48.32376" lon="6.95398">
        <ele>558</ele>
        <time>2014-11-02T14:22:38.079Z</time>
      </trkpt>
      <trkpt lat="48.32391" lon="6.95391">
        <ele>558</ele>
        <time>2014-11-02T14:22:50.081Z</time>
      </trkpt>
      <trkpt lat="48.32433" lon="6.95359">
        <ele>559</ele>
        <time>2014-11-02T14:23:49.004Z</time>
      </trkpt>
      <trkpt lat="48.32434" lon="6.9536">
        <ele>559</ele>
        <time>2014-11-02T14:24:49.084Z</time>
      </trkpt>
      <trkpt lat="48.32436" lon="6.95364">
        <ele>559</ele>
        <time>2014-11-02T14:25:50.074Z</time>
      </trkpt>
      <trkpt lat="48.32434" lon="6.95368">
        <ele>559</ele>
        <time>2014-11-02T14:26:51.054Z</time>
      </trkpt>
      <trkpt lat="48.32433" lon="6.95368">
        <ele>559</ele>
        <time>2014-11-02T14:27:52.045Z</time>
      </trkpt>
      <trkpt lat="48.32433" lon="6.95368">
        <ele>559</ele>
        <time>2014-11-02T14:28:52.065Z</time>
      </trkpt>
      <trkpt lat="48.32475" lon="6.95337">
        <ele>562</ele>
        <time>2014-11-02T14:29:42.088Z</time>
      </trkpt>
      <trkpt lat="48.32515" lon="6.95305">
        <ele>572</ele>
        <time>2014-11-02T14:30:18.094Z</time>
      </trkpt>
      <trkpt lat="48.32557" lon="6.95281">
        <ele>574</ele>
        <time>2014-11-02T14:31:01.093Z</time>
      </trkpt>
      <trkpt lat="48.3257" lon="6.95233">
        <ele>584</ele>
        <time>2014-11-02T14:32:02.074Z</time>
      </trkpt>
      <trkpt lat="48.32549" lon="6.9519">
        <ele>586</ele>
        <time>2014-11-02T14:33:03.065Z</time>
      </trkpt>
      <trkpt lat="48.32586" lon="6.95144">
        <ele>591</ele>
        <time>2014-11-02T14:33:52.064Z</time>
      </trkpt>
      <trkpt lat="48.32626" lon="6.95114">
        <ele>589</ele>
        <time>2014-11-02T14:34:26.045Z</time>
      </trkpt>
      <trkpt lat="48.32668" lon="6.95073">
        <ele>585</ele>
        <time>2014-11-02T14:35:06.041Z</time>
      </trkpt>
      <trkpt lat="48.32689" lon="6.95051">
        <ele>581</ele>
        <time>2014-11-02T14:35:26.056Z</time>
      </trkpt>
      <trkpt lat="48.32729" lon="6.95014">
        <ele>579</ele>
        <time>2014-11-02T14:36:14.028Z</time>
      </trkpt>
      <trkpt lat="48.32746" lon="6.94965">
        <ele>575</ele>
        <time>2014-11-02T14:37:14.049Z</time>
      </trkpt>
      <trkpt lat="48.32775" lon="6.94913">
        <ele>573</ele>
        <time>2014-11-02T14:38:05.018Z</time>
      </trkpt>
      <trkpt lat="48.32793" lon="6.94851">
        <ele>573</ele>
        <time>2014-11-02T14:38:43.023Z</time>
      </trkpt>
      <trkpt lat="48.32815" lon="6.94772">
        <ele>579</ele>
        <time>2014-11-02T14:39:25.028Z</time>
      </trkpt>
      <trkpt lat="48.32827" lon="6.94722">
        <ele>581</ele>
        <time>2014-11-02T14:39:48.021Z</time>
      </trkpt>
      <trkpt lat="48.32832" lon="6.94647">
        <ele>583</ele>
        <time>2014-11-02T14:40:24.02Z</time>
      </trkpt>
      <trkpt lat="48.32829" lon="6.94621">
        <ele>582</ele>
        <time>2014-11-02T14:40:34.023Z</time>
      </trkpt>
      <trkpt lat="48.32825" lon="6.94561">
        <ele>584</ele>
        <time>2014-11-02T14:40:58.023Z</time>
      </trkpt>
      <trkpt lat="48.32814" lon="6.94495">
        <ele>584</ele>
        <time>2014-11-02T14:41:29.016Z</time>
      </trkpt>
      <trkpt lat="48.32797" lon="6.94431">
        <ele>583</ele>
        <time>2014-11-02T14:41:57.001Z</time>
      </trkpt>
      <trkpt lat="48.32778" lon="6.94349">
        <ele>584</ele>
        <time>2014-11-02T14:42:35.984Z</time>
      </trkpt>
      <trkpt lat="48.32755" lon="6.94283">
        <ele>582</ele>
        <time>2014-11-02T14:43:05.988Z</time>
      </trkpt>
      <trkpt lat="48.32747" lon="6.94258">
        <ele>584</ele>
        <time>2014-11-02T14:43:18.984Z</time>
      </trkpt>
      <trkpt lat="48.32747" lon="6.94237">
        <ele>582</ele>
        <time>2014-11-02T14:43:27.985Z</time>
      </trkpt>
      <trkpt lat="48.32742" lon="6.94209">
        <ele>576</ele>
        <time>2014-11-02T14:43:40.985Z</time>
      </trkpt>
      <trkpt lat="48.32725" lon="6.94123">
        <ele>572</ele>
        <time>2014-11-02T14:44:19.984Z</time>
      </trkpt>
      <trkpt lat="48.32708" lon="6.94055">
        <ele>572</ele>
        <time>2014-11-02T14:44:53.986Z</time>
      </trkpt>
      <trkpt lat="48.32699" lon="6.94023">
        <ele>572</ele>
        <time>2014-11-02T14:45:06.984Z</time>
      </trkpt>
      <trkpt lat="48.3269" lon="6.94008">
        <ele>573</ele>
        <time>2014-11-02T14:45:15.978Z</time>
      </trkpt>
      <trkpt lat="48.32693" lon="6.94008">
        <ele>573</ele>
        <time>2014-11-02T14:46:15.984Z</time>
      </trkpt>
      <trkpt lat="48.32693" lon="6.94008">
        <ele>573</ele>
        <time>2014-11-02T14:47:15.995Z</time>
      </trkpt>
      <trkpt lat="48.32694" lon="6.94007">
        <ele>573</ele>
        <time>2014-11-02T14:48:16.011Z</time>
      </trkpt>
      <trkpt lat="48.32692" lon="6.94005">
        <ele>573</ele>
        <time>2014-11-02T14:49:17.009Z</time>
      </trkpt>
      <trkpt lat="48.32691" lon="6.94009">
        <ele>573</ele>
        <time>2014-11-02T14:50:17.023Z</time>
      </trkpt>
      <trkpt lat="48.32691" lon="6.94009">
        <ele>573</ele>
        <time>2014-11-02T14:51:17.04Z</time>
      </trkpt>
      <trkpt lat="48.32674" lon="6.94">
        <ele>574</ele>
        <time>2014-11-02T14:52:17.056Z</time>
      </trkpt>
      <trkpt lat="48.32695" lon="6.93992">
        <ele>575</ele>
        <time>2014-11-02T14:52:39.065Z</time>
      </trkpt>
      <trkpt lat="48.32708" lon="6.93972">
        <ele>575</ele>
        <time>2014-11-02T14:53:01.059Z</time>
      </trkpt>
      <trkpt lat="48.32699" lon="6.93906">
        <ele>577</ele>
        <time>2014-11-02T14:53:43.074Z</time>
      </trkpt>
      <trkpt lat="48.32693" lon="6.93853">
        <ele>577</ele>
        <time>2014-11-02T14:54:20.074Z</time>
      </trkpt>
      <trkpt lat="48.32677" lon="6.93785">
        <ele>574</ele>
        <time>2014-11-02T14:55:02.025Z</time>
      </trkpt>
      <trkpt lat="48.32677" lon="6.93764">
        <ele>575</ele>
        <time>2014-11-02T14:55:15.055Z</time>
      </trkpt>
      <trkpt lat="48.32666" lon="6.9373">
        <ele>578</ele>
        <time>2014-11-02T14:55:34.045Z</time>
      </trkpt>
      <trkpt lat="48.32652" lon="6.93722">
        <ele>577</ele>
        <time>2014-11-02T14:55:44.039Z</time>
      </trkpt>
      <trkpt lat="48.32638" lon="6.93724">
        <ele>577</ele>
        <time>2014-11-02T14:55:56.039Z</time>
      </trkpt>
      <trkpt lat="48.32626" lon="6.93743">
        <ele>578</ele>
        <time>2014-11-02T14:56:57.028Z</time>
      </trkpt>
      <trkpt lat="48.32634" lon="6.93732">
        <ele>578</ele>
        <time>2014-11-02T14:57:57.099Z</time>
      </trkpt>
      <trkpt lat="48.32634" lon="6.93732">
        <ele>578</ele>
        <time>2014-11-02T14:58:58.105Z</time>
      </trkpt>
      <trkpt lat="48.32623" lon="6.93704">
        <ele>577</ele>
        <time>2014-11-02T14:59:14.104Z</time>
      </trkpt>
      <trkpt lat="48.32597" lon="6.93648">
        <ele>572</ele>
        <time>2014-11-02T14:59:53.118Z</time>
      </trkpt>
      <trkpt lat="48.3257" lon="6.93586">
        <ele>566</ele>
        <time>2014-11-02T15:00:34.123Z</time>
      </trkpt>
      <trkpt lat="48.32572" lon="6.93581">
        <ele>564</ele>
        <time>2014-11-02T15:01:35.1Z</time>
      </trkpt>
      <trkpt lat="48.32586" lon="6.93587">
        <ele>570</ele>
        <time>2014-11-02T15:02:06.135Z</time>
      </trkpt>
      <trkpt lat="48.326" lon="6.93605">
        <ele>569</ele>
        <time>2014-11-02T15:03:07.103Z</time>
      </trkpt>
      <trkpt lat="48.32596" lon="6.93593">
        <ele>569</ele>
        <time>2014-11-02T15:04:08.083Z</time>
      </trkpt>
      <trkpt lat="48.32572" lon="6.9358">
        <ele>563</ele>
        <time>2014-11-02T15:05:09.071Z</time>
      </trkpt>
      <trkpt lat="48.32564" lon="6.93595">
        <ele>564</ele>
        <time>2014-11-02T15:06:09.071Z</time>
      </trkpt>
      <trkpt lat="48.32537" lon="6.9362">
        <ele>560</ele>
        <time>2014-11-02T15:06:42.069Z</time>
      </trkpt>
      <trkpt lat="48.32496" lon="6.93589">
        <ele>543</ele>
        <time>2014-11-02T15:07:39.055Z</time>
      </trkpt>
      <trkpt lat="48.32493" lon="6.93568">
        <ele>537</ele>
        <time>2014-11-02T15:07:47.058Z</time>
      </trkpt>
      <trkpt lat="48.32501" lon="6.93502">
        <ele>540</ele>
        <time>2014-11-02T15:08:27.053Z</time>
      </trkpt>
      <trkpt lat="48.32528" lon="6.93447">
        <ele>538</ele>
        <time>2014-11-02T15:09:12.025Z</time>
      </trkpt>
      <trkpt lat="48.3254" lon="6.93381">
        <ele>528</ele>
        <time>2014-11-02T15:09:52.021Z</time>
      </trkpt>
      <trkpt lat="48.3254" lon="6.93312">
        <ele>519</ele>
        <time>2014-11-02T15:10:31.021Z</time>
      </trkpt>
      <trkpt lat="48.32503" lon="6.93273">
        <ele>518</ele>
        <time>2014-11-02T15:11:05.008Z</time>
      </trkpt>
      <trkpt lat="48.32472" lon="6.93217">
        <ele>512</ele>
        <time>2014-11-02T15:11:38.003Z</time>
      </trkpt>
      <trkpt lat="48.3246" lon="6.93192">
        <ele>511</ele>
        <time>2014-11-02T15:11:51.995Z</time>
      </trkpt>
      <trkpt lat="48.32456" lon="6.93155">
        <ele>505</ele>
        <time>2014-11-02T15:12:11.99Z</time>
      </trkpt>
      <trkpt lat="48.32444" lon="6.93142">
        <ele>505</ele>
        <time>2014-11-02T15:12:20.99Z</time>
      </trkpt>
      <trkpt lat="48.32402" lon="6.93115">
        <ele>497</ele>
        <time>2014-11-02T15:13:04.991Z</time>
      </trkpt>
      <trkpt lat="48.32362" lon="6.93081">
        <ele>490</ele>
        <time>2014-11-02T15:13:46.989Z</time>
      </trkpt>
      <trkpt lat="48.32324" lon="6.93064">
        <ele>477</ele>
        <time>2014-11-02T15:14:22.975Z</time>
      </trkpt>
      <trkpt lat="48.32282" lon="6.93039">
        <ele>469</ele>
        <time>2014-11-02T15:15:13.01Z</time>
      </trkpt>
      <trkpt lat="48.32236" lon="6.93036">
        <ele>446</ele>
        <time>2014-11-02T15:16:02.994Z</time>
      </trkpt>
      <trkpt lat="48.3219" lon="6.93032">
        <ele>438</ele>
        <time>2014-11-02T15:16:39.005Z</time>
      </trkpt>
      <trkpt lat="48.32171" lon="6.93033">
        <ele>436</ele>
        <time>2014-11-02T15:16:54.986Z</time>
      </trkpt>
      <trkpt lat="48.32143" lon="6.93033">
        <ele>419</ele>
        <time>2014-11-02T15:17:22.986Z</time>
      </trkpt>
    </trkseg>
  </trk>
</gpx>